Mullan, ID

11:46 AM PDT on July 31, 2014 (GMT -0700)
Mullan Pass (KMLP) Elev 6073 ft | 47.45 °N, 115.67 °W | Change Station

Current weather conditions updated 53 minutes ago

Clear
Clear
75 °F
Feels Like 75 °F
N
4
Wind Variable Wind from North

Today is forecast to be nearly the same temperature as yesterday.

Today
High -- | Low -- °F
--% Chance of Precip.
Yesterday
High -- | Low -- °F
Precip. -- in
5:19 AM 8:17 PM
Waxing Crescent, 20% visible
Pressure 30.00 in
Visibility 10.0 miles
Clouds Clear
Dew Point 36 °F
Humidity 24%
Rainfall 0.00 in
Snow Depth 1 in , 0 in
UV 9 out of 12
Pollen 6.50 out of 12
Air Quality Not available.
Flu Activity Not available.
METAR KMLP 311753Z AUTO 35003KT 10SM CLR 24/02 A3034 RMK AO2 SLP158 T02390022 10244 20189 52006

More Conditions Fewer Conditions

Pressure 30.00 in
Visibility 10.0 miles
Clouds Clear
Dew Point 36 °F
Humidity 24%
Rainfall 0.00 in
Snow Depth 1 in , 0 in
UV 9 out of 12
Pollen 6.50 out of 12
Air Quality Not available.
Flu Activity Not available.
METAR KMLP 311753Z AUTO 35003KT 10SM CLR 24/02 A3034 RMK AO2 SLP158 T02390022 10244 20189 52006

More Conditions Fewer Conditions

10-Day Weather Forecast

Almanac

Astronomy

Jul. 31, 2014 Rise Set
Actual Time 5:19 AM PDT 8:17 PM PDT
Civil Twilight 4:43 AM PDT 8:53 PM PDT
Nautical Twilight 3:57 AM PDT 9:39 PM PDT
Astronomical Twilight 3:00 AM PDT 10:35 PM PDT
Moon 10:13 AM PDT 10:08 PM PDT
Length of Visible Light 16h 10m
Length of Day
14h 58m
Tomorrow will be 2m 38s shorter.
Waxing Crescent, 20% of the Moon is Illuminated
Today
Waxing Crescent
Aug 3
First Quarter
Aug 10
Full
Aug 17
Last Quarter
Aug 25
New

Today's Extremes

State Highs State Lows

Community

WunderPhotos

Upload Photos

1,739,422 photos uploaded!

Nearby

Snow Depth

Station Depth Elevation
Humboldt Gulch 1 in 4250 ft
Sunset 0 in 5540 ft
Mica Creek 0 in 4750 ft
Sherwin 0 in 3200 ft
Schweitzer Basin 0 in 6090 ft

Earthquake Activity

City Distance Mag. Time & Date
No recent earthquake activity has been reported nearby.
Minimum magnitude displayed is 2.5.

Coastal Water Temperatures

Place Temperature
No Stations Reporting

Nearby Weather Stations

Station Location Temp. Heat Index Dew Point Humidity Wind Precip. Elev Updated Type
MesoWest Lookout Pass I-90 MP 0.2 , Mullan, ID 82 °F 80 °F 38 °F 21% NNW  at  2 mph 0.00 in / hr 4724 ft 10:45 AM PDT MADIS
Little Beaver Creek, Trout Creek, MT 86.9 °F 86 °F 58 °F 37% ESE  at  0.0 mph 0.00 in / hr 2583 ft 12:45 PM MDT Normal
Whitepine area, Trout Creek, MT 87.6 °F 85 °F 49 °F 26% ENE  at  1.4 mph 0.00 in / hr 2550 ft 12:43 PM MDT Normal
Diamond Street, Kellogg, ID 90.7 °F 88 °F 52 °F 27% South  at  3.0 mph 0.00 in / hr 2280 ft 11:46 AM PDT Normal

Show More Stations Show Fewer Stations